Sunday, May 27, 2018, 5:54 PM GMT
Back to Local

CYSJ, Saint John, N. B.

Location: , , Canada Lat: 45.333
Local Time: 5:54 PM GMT (17:54 GMT) Lon: -65.883
Time Zone: GMT Elev: 337 ft

Show me the last for .
Show Coded

Time T Td Feel RH Dir Speed Gust Alt SLP Vis Weather Sky Remarks
2018-05-27 17:00 59 27 - 28 100° 12 20 30.29 30.31 15 SCT260 None
2018-05-27 16:00 57 25 - 28 130° 14 21 30.31 30.32 15 FEW260 None
2018-05-27 15:00 55 32 - 40 110° 10 - 30.31 30.33 15 FEW004 FEW240 None
2018-05-27 14:00 54 30 - 40 90° 14 23 30.31 30.32 15 FEW004 None
2018-05-27 13:00 52 34 - 50 80° 15 - 30.30 30.31 15 FEW004 None
2018-05-27 12:00 50 36 44 57 100° 12 20 30.29 30.30 15 FEW004 None
2018-05-27 11:00 45 37 40 75 70° 9 - 30.27 30.29 15 FEW004 None
2018-05-27 10:00 39 37 37 93 50° 3 - 30.28 30.29 15 FEW250 None
2018-05-27 09:00 34 34 30 100 80° 5 - 30.26 30.27 15 FEW002 SCT250 None
2018-05-27 08:00 34 32 - 93 Variable 2 - 30.23 30.24 15 MIFG FEW005 FEW250 None
2018-05-27 07:00 36 34 - 93 60° 2 - 30.21 30.22 15 FEW150 None
2018-05-27 06:14 36 36 32 100 40° 5 - 30.19 30.20 15 CLR None
2018-05-27 06:00 37 36 - 93 - Calm - 30.18 30.20 15 CLR None
2018-05-27 05:00 41 39 37 93 90° 6 - 30.16 30.17 15 FEW260 None
2018-05-27 04:00 43 39 39 86 100° 7 - 30.14 30.15 15 FEW260 None
2018-05-27 03:00 43 39 41 86 80° 3 - 30.11 30.13 15 FEW070 SCT260 None
2018-05-27 02:00 45 41 41 87 100° 6 - 30.08 30.09 15 FEW060 None
2018-05-27 01:00 48 43 45 81 120° 7 - 30.04 30.05 15 FEW045 SCT070 Pressure rising rapidly
2018-05-27 00:00 54 45 - 71 50° 10 - 29.99 30.00 15 SCT045 BKN120 OVC250 None
2018-05-26 23:00 54 46 - 76 90° 9 - 29.94 29.95 15 SCT039 BKN250 Pressure rising rapidly
2018-05-26 22:00 59 50 - 72 100° 12 - 29.88 29.88 15 FEW030 BKN280 Pressure rising rapidly
2018-05-26 21:00 64 50 - 59 10° 8 - 29.83 29.84 15 FEW030 BKN280 None
2018-05-26 20:00 64 52 - 63 10° 14 - 29.80 29.81 15 FEW025 BKN280 None
2018-05-26 19:00 63 54 - 72 20° 9 18 29.77 29.78 15 SCT019 BKN270 None
2018-05-26 18:31 61 54 - 77 30° 12 - 29.76 29.77 15 SCT013 BKN270 None
2018-05-26 18:00 59 54 - 82 360° 12 18 29.75 29.76 15 BKN009 BKN250 None

Support USWX by starting your Amazon purchase here.